Time;durP1;ratioP1;P1;durP2;ratioP2;P2;SDS_P1;SDS_P2;PMS_P1;PMS_P2;Temp;Humidity;BMP_temperature;BMP_pressure;BME280_temperature;BME280_humidity;BME280_pressure;Samples;Min_cycle;Max_cycle;Signal;HPM_P1;HPM_P2
2021/12/14 00:01:09;;;;;;;22.73;14.23;;;4.40;99.90;;;;;;4979496;28;20204;-76
2021/12/14 00:03:39;;;;;;;26.93;15.27;;;4.40;99.90;;;;;;4997347;28;20635;-75
2021/12/14 00:06:04;;;;;;;35.77;16.50;;;4.40;99.90;;;;;;4996636;28;20177;-75
2021/12/14 00:08:36;;;;;;;30.53;17.07;;;4.30;99.90;;;;;;4979380;28;20202;-76
2021/12/14 00:16:05;;;;;;;30.07;15.77;;;4.20;99.90;;;;;;4997021;28;20183;-75
2021/12/14 00:18:32;;;;;;;27.63;15.00;;;4.10;99.90;;;;;;4979131;28;20208;-76
2021/12/14 00:21:03;;;;;;;28.93;15.57;;;4.00;99.90;;;;;;4996465;28;20568;-76
2021/12/14 00:26:17;;;;;;;28.27;15.13;;;4.00;99.90;;;;;;4996069;28;20233;-75
2021/12/14 00:28:43;;;;;;;29.23;16.17;;;4.00;99.90;;;;;;4996516;28;20192;-76
2021/12/14 00:31:14;;;;;;;43.57;16.10;;;4.00;99.90;;;;;;4978861;28;20248;-76
2021/12/14 00:33:41;;;;;;;30.27;14.60;;;3.90;99.90;;;;;;4996438;28;20180;-76
2021/12/14 00:36:10;;;;;;;26.70;15.23;;;3.90;99.90;;;;;;4996217;28;20176;-76
2021/12/14 00:38:37;;;;;;;32.47;15.40;;;3.90;99.90;;;;;;4978879;28;20588;-76
2021/12/14 00:41:13;;;;;;;35.03;15.67;;;3.90;99.90;;;;;;4996245;28;20569;-75
2021/12/14 00:43:39;;;;;;;28.87;15.17;;;3.80;99.90;;;;;;4996681;28;20191;-75
2021/12/14 00:46:06;;;;;;;28.07;14.50;;;3.80;99.90;;;;;;4996238;28;20188;-75
2021/12/14 00:48:32;;;;;;;31.57;14.03;;;3.90;99.90;;;;;;4978610;28;20199;-76
2021/12/14 00:50:59;;;;;;;27.33;14.07;;;3.90;99.90;;;;;;4995940;28;20685;-76
2021/12/14 00:53:25;;;;;;;25.50;13.80;;;3.80;99.90;;;;;;4996102;28;20168;-76
2021/12/14 00:55:53;;;;;;;28.90;13.70;;;3.90;99.90;;;;;;4996099;28;20271;-75
2021/12/14 00:58:20;;;;;;;23.03;13.47;;;3.90;99.90;;;;;;4978470;28;20179;-75
2021/12/14 01:01:01;;;;;;;24.27;13.50;;;3.80;99.90;;;;;;4978544;28;20294;-75
2021/12/14 01:03:30;;;;;;;24.90;13.27;;;3.90;99.90;;;;;;4996127;28;20190;-76
2021/12/14 01:05:58;;;;;;;27.60;13.87;;;3.90;99.90;;;;;;4995778;28;20175;-76
2021/12/14 01:08:26;;;;;;;25.33;13.37;;;3.80;99.90;;;;;;4995768;28;20271;-75
2021/12/14 01:10:58;;;;;;;23.27;13.17;;;3.70;99.90;;;;;;4978240;28;20191;-75
2021/12/14 01:13:27;;;;;;;24.13;13.53;;;3.90;99.90;;;;;;4995743;28;20176;-76
2021/12/14 01:16:14;;;;;;;24.30;13.00;;;3.90;99.90;;;;;;4995712;28;20176;-75
2021/12/14 01:21:25;;;;;;;23.60;12.60;;;3.90;99.90;;;;;;4995239;28;20246;-75
2021/12/14 01:24:01;;;;;;;25.20;13.03;;;4.00;99.90;;;;;;4978139;28;20291;-76
2021/12/14 01:26:29;;;;;;;23.47;12.07;;;4.10;99.90;;;;;;4995512;28;20249;-76
2021/12/14 01:28:56;;;;;;;23.77;12.17;;;4.00;99.90;;;;;;4995276;28;20222;-75
2021/12/14 01:31:29;;;;;;;24.43;12.50;;;3.90;99.90;;;;;;4995376;28;20211;-75
2021/12/14 01:33:59;;;;;;;23.90;12.97;;;3.90;99.90;;;;;;4995312;28;20247;-75
2021/12/14 01:36:36;;;;;;;25.63;13.07;;;3.90;99.90;;;;;;4977760;28;20246;-75
2021/12/14 01:41:49;;;;;;;22.53;12.67;;;3.80;99.90;;;;;;4995223;28;20258;-76
2021/12/14 01:44:16;;;;;;;22.13;12.97;;;3.80;99.90;;;;;;4977676;28;20179;-75
2021/12/14 01:46:43;;;;;;;28.90;13.50;;;3.70;99.90;;;;;;4995203;28;20186;-76
2021/12/14 01:49:11;;;;;;;27.77;12.77;;;4.20;99.90;;;;;;4994961;28;20195;-75
2021/12/14 01:51:41;;;;;;;26.57;13.17;;;3.60;99.90;;;;;;4994833;28;20230;-76
2021/12/14 01:54:10;;;;;;;27.40;12.43;;;3.60;99.90;;;;;;4995126;28;20253;-76
2021/12/14 01:56:37;;;;;;;26.60;12.77;;;3.60;99.90;;;;;;4977396;28;20177;-76
2021/12/14 01:59:34;;;;;;;24.73;11.43;;;3.60;99.90;;;;;;4995106;28;20555;-76
2021/12/14 02:04:47;;;;;;;24.83;11.83;;;3.50;99.90;;;;;;4995021;28;20193;-76
2021/12/14 02:07:15;;;;;;;22.07;11.53;;;3.50;99.90;;;;;;4976684;28;20182;-76
2021/12/14 02:09:41;;;;;;;24.33;11.50;;;3.50;99.90;;;;;;4977433;28;20590;-76
2021/12/14 02:12:14;;;;;;;25.77;11.97;;;3.40;99.90;;;;;;4994582;28;20181;-76
2021/12/14 02:14:40;;;;;;;23.70;11.10;;;3.40;99.90;;;;;;4994667;28;20690;-76
2021/12/14 02:17:08;;;;;;;22.50;10.37;;;3.40;99.90;;;;;;4977674;28;20204;-76
2021/12/14 02:19:36;;;;;;;21.17;10.40;;;3.50;99.90;;;;;;4994435;28;20196;-76
2021/12/14 02:22:05;;;;;;;26.67;11.77;;;3.70;99.90;;;;;;4976862;28;20192;-76
2021/12/14 02:24:31;;;;;;;25.17;11.50;;;3.60;99.90;;;;;;4977833;28;20194;-75
2021/12/14 02:26:58;;;;;;;29.43;10.97;;;3.50;99.90;;;;;;4995251;28;20188;-76
2021/12/14 02:29:47;;;;;;;22.27;11.10;;;3.40;99.90;;;;;;4983371;28;20265;-77
2021/12/14 02:32:17;;;;;;;26.67;11.50;;;3.40;99.90;;;;;;4996978;28;20546;-76
2021/12/14 02:35:00;;;;;;;24.43;11.30;;;3.50;99.90;;;;;;4994437;28;20279;-75
2021/12/14 02:37:37;;;;;;;20.27;10.37;;;3.50;99.90;;;;;;4976355;28;20538;-77
2021/12/14 02:40:16;;;;;;;21.13;11.23;;;3.50;99.90;;;;;;4975098;28;20216;-77
2021/12/14 02:42:43;;;;;;;20.17;10.47;;;3.50;99.90;;;;;;4965402;28;20183;-75
2021/12/14 02:45:09;;;;;;;24.00;11.63;;;3.50;99.90;;;;;;4992798;28;20179;-77
2021/12/14 02:47:35;;;;;;;24.73;11.70;;;3.50;99.90;;;;;;4992113;28;20306;-74
2021/12/14 02:50:01;;;;;;;21.30;11.17;;;3.50;99.90;;;;;;4986900;28;20225;-76
2021/12/14 02:52:34;;;;;;;23.30;11.33;;;3.60;99.90;;;;;;4975652;28;20262;-77
2021/12/14 02:55:10;;;;;;;29.17;15.73;;;3.60;99.90;;;;;;4958104;28;20181;-77
2021/12/14 02:57:41;;;;;;;33.67;16.80;;;3.70;99.90;;;;;;4974037;28;20631;-76
2021/12/14 03:00:11;;;;;;;37.00;17.47;;;3.60;99.90;;;;;;4956468;28;20247;-76
2021/12/14 03:02:37;;;;;;;35.73;16.63;;;3.50;99.90;;;;;;4973299;28;20165;-76
2021/12/14 03:05:15;;;;;;;36.70;17.53;;;3.40;99.90;;;;;;4981946;28;20200;-76
2021/12/14 03:07:47;;;;;;;39.33;17.30;;;3.40;99.90;;;;;;4974683;28;20176;-76
2021/12/14 03:12:47;;;;;;;37.87;17.13;;;3.30;99.90;;;;;;4974372;28;20189;-75
2021/12/14 03:15:26;;;;;;;37.37;17.67;;;3.30;99.90;;;;;;4974084;28;20572;-75
2021/12/14 03:17:58;;;;;;;42.67;18.60;;;3.30;99.90;;;;;;4973090;28;20553;-75
2021/12/14 03:20:35;;;;;;;36.20;17.60;;;3.40;99.90;;;;;;4958046;28;20286;-75
2021/12/14 03:23:08;;;;;;;31.80;17.00;;;3.40;99.90;;;;;;4969512;28;20209;-75
2021/12/14 03:25:38;;;;;;;33.63;17.37;;;3.40;99.90;;;;;;4982078;28;20176;-75
2021/12/14 03:28:04;;;;;;;36.83;19.17;;;3.40;99.90;;;;;;4987200;28;20206;-75
2021/12/14 03:30:34;;;;;;;41.27;20.47;;;3.40;99.90;;;;;;4991603;28;20339;-75
2021/12/14 03:33:07;;;;;;;38.27;19.43;;;3.40;99.90;;;;;;4974099;28;20693;-77
2021/12/14 03:35:44;;;;;;;36.20;19.20;;;3.50;99.90;;;;;;4992468;28;20646;-76
2021/12/14 03:38:18;;;;;;;47.10;19.97;;;3.50;99.90;;;;;;4991162;28;20184;-77
2021/12/14 03:40:54;;;;;;;36.13;18.20;;;3.50;99.90;;;;;;4983323;28;20713;-77
2021/12/14 03:43:20;;;;;;;42.23;20.27;;;3.50;99.90;;;;;;4993357;28;20215;-77
2021/12/14 03:45:46;;;;;;;42.57;20.03;;;3.50;99.90;;;;;;4993373;28;20658;-76
2021/12/14 03:48:12;;;;;;;36.80;20.50;;;3.50;99.90;;;;;;4993382;28;20195;-75
2021/12/14 03:50:41;;;;;;;37.70;19.90;;;3.50;99.90;;;;;;4975750;28;20223;-77
2021/12/14 03:53:09;;;;;;;43.07;18.73;;;3.60;99.90;;;;;;4993440;28;20183;-77
2021/12/14 03:55:45;;;;;;;36.33;19.50;;;3.60;99.90;;;;;;4993438;28;20263;-76
2021/12/14 03:58:16;;;;;;;37.30;20.00;;;3.60;99.90;;;;;;4975743;28;20187;-77
2021/12/14 04:00:47;;;;;;;34.47;18.63;;;3.60;99.90;;;;;;4977750;28;20200;-75
2021/12/14 04:03:16;;;;;;;40.50;19.53;;;3.50;99.90;;;;;;4996415;28;20183;-77
2021/12/14 04:05:44;;;;;;;33.00;18.10;;;3.50;99.90;;;;;;4996752;28;20529;-74
2021/12/14 04:08:13;;;;;;;37.10;19.80;;;3.40;99.90;;;;;;4996740;28;20685;-74
2021/12/14 04:10:41;;;;;;;38.40;18.60;;;3.50;99.90;;;;;;4996407;28;20194;-74
2021/12/14 04:13:13;;;;;;;37.03;19.10;;;3.50;99.90;;;;;;4996822;28;20179;-75
2021/12/14 04:15:41;;;;;;;36.30;18.30;;;3.40;99.90;;;;;;4996700;28;20168;-75
2021/12/14 04:18:07;;;;;;;37.00;17.50;;;3.40;99.90;;;;;;4979368;28;20187;-75
2021/12/14 04:20:36;;;;;;;42.10;17.87;;;3.30;99.90;;;;;;4979111;28;20679;-75
2021/12/14 04:23:08;;;;;;;36.87;17.40;;;3.20;99.90;;;;;;4979093;28;20258;-75
2021/12/14 04:25:35;;;;;;;38.07;18.07;;;3.10;99.90;;;;;;4996622;28;20179;-76
2021/12/14 04:28:06;;;;;;;37.20;18.00;;;2.90;99.90;;;;;;4996537;28;20206;-76
2021/12/14 04:30:33;;;;;;;45.87;20.27;;;2.90;99.90;;;;;;4996403;28;20210;-76
2021/12/14 04:33:01;;;;;;;47.33;18.73;;;2.90;99.90;;;;;;4998955;28;20176;-76
2021/12/14 04:35:30;;;;;;;39.07;17.90;;;2.80;99.90;;;;;;4996273;28;20259;-76
2021/12/14 04:37:59;;;;;;;32.80;17.17;;;2.70;99.90;;;;;;4979070;28;20218;-76
2021/12/14 04:54:14;;;;;;;35.63;18.50;;;2.50;99.90;;;;;;4996131;28;20235;-73
2021/12/14 04:56:45;;;;;;;36.63;18.90;;;2.50;99.90;;;;;;4996021;28;20172;-73
2021/12/14 04:59:34;;;;;;;47.37;21.67;;;2.60;99.90;;;;;;4978567;28;20230;-73
2021/12/14 05:02:16;;;;;;;42.90;21.17;;;2.60;99.90;;;;;;4993421;28;20210;-72
2021/12/14 05:04:42;;;;;;;39.60;20.97;;;2.70;99.90;;;;;;4990669;28;20250;-73
2021/12/14 05:09:53;;;;;;;40.43;21.13;;;2.70;99.90;;;;;;4993254;28;20210;-75
2021/12/14 05:12:28;;;;;;;40.27;20.30;;;2.70;99.90;;;;;;4993965;28;20254;-73
2021/12/14 05:14:55;;;;;;;39.83;21.27;;;2.70;99.90;;;;;;4995260;28;20207;-73
2021/12/14 05:17:23;;;;;;;38.80;20.60;;;2.80;99.90;;;;;;4995239;28;20186;-73
2021/12/14 05:19:52;;;;;;;38.40;21.37;;;2.60;99.90;;;;;;4995399;28;20710;-71
2021/12/14 05:22:32;;;;;;;35.77;20.00;;;2.70;99.90;;;;;;4977771;28;20207;-73
2021/12/14 05:25:04;;;;;;;34.43;19.67;;;2.60;99.90;;;;;;4995442;28;20267;-72
2021/12/14 05:27:38;;;;;;;38.27;19.73;;;2.60;99.90;;;;;;4995671;28;20180;-73
2021/12/14 05:30:14;;;;;;;39.00;19.83;;;2.60;99.90;;;;;;4995411;28;20187;-73
2021/12/14 05:32:40;;;;;;;37.43;20.40;;;2.70;99.90;;;;;;4977799;28;20188;-73
2021/12/14 05:35:12;;;;;;;43.43;20.83;;;2.70;99.90;;;;;;4978417;28;20636;-73
2021/12/14 05:43:07;;;;;;;35.97;20.10;;;2.80;99.90;;;;;;4995022;28;20768;-73
2021/12/14 05:45:36;;;;;;;33.23;20.07;;;2.80;99.90;;;;;;4977626;28;20198;-73
2021/12/14 05:48:02;;;;;;;38.33;20.53;;;2.80;99.90;;;;;;4994853;28;20203;-74
2021/12/14 05:50:32;;;;;;;34.40;19.50;;;2.80;99.90;;;;;;4995017;28;20616;-73
2021/12/14 05:52:58;;;;;;;36.60;20.90;;;2.80;99.90;;;;;;4977170;28;20237;-73
2021/12/14 05:55:28;;;;;;;35.20;20.10;;;2.80;99.90;;;;;;4977504;28;20262;-74
2021/12/14 05:57:55;;;;;;;37.80;21.57;;;2.70;99.90;;;;;;4994836;28;20262;-73
2021/12/14 06:00:22;;;;;;;37.37;20.50;;;2.70;99.90;;;;;;4995235;28;20187;-73
2021/12/14 06:02:48;;;;;;;38.50;22.53;;;2.60;99.90;;;;;;4994849;28;20223;-74
2021/12/14 06:05:18;;;;;;;52.30;22.17;;;2.60;99.90;;;;;;4977954;28;20635;-74
2021/12/14 06:07:44;;;;;;;38.23;21.63;;;2.60;99.90;;;;;;4994632;28;20538;-72
2021/12/14 06:10:13;;;;;;;37.03;21.17;;;2.50;99.90;;;;;;4993272;28;20179;-72
2021/12/14 06:12:39;;;;;;;39.60;20.67;;;2.50;99.90;;;;;;4988292;28;20309;-72
2021/12/14 06:15:10;;;;;;;47.33;20.73;;;2.40;99.90;;;;;;4982702;28;20170;-72
2021/12/14 06:17:39;;;;;;;38.70;19.87;;;2.30;99.90;;;;;;4994444;28;20168;-73
2021/12/14 06:20:23;;;;;;;39.03;20.83;;;2.10;99.90;;;;;;4993899;28;20873;-73
2021/12/14 06:22:52;;;;;;;45.57;24.07;;;2.20;99.90;;;;;;4981901;28;20208;-73
2021/12/14 06:25:25;;;;;;;40.57;21.87;;;2.20;99.90;;;;;;4985240;28;20262;-73
2021/12/14 06:27:53;;;;;;;46.77;22.73;;;2.20;99.90;;;;;;4993978;28;20168;-73
2021/12/14 06:30:28;;;;;;;48.00;20.97;;;2.20;99.90;;;;;;4976580;28;20179;-74
2021/12/14 06:33:03;;;;;;;48.17;21.47;;;2.20;99.90;;;;;;4994274;28;20199;-74
2021/12/14 06:35:50;;;;;;;42.73;21.07;;;2.30;99.90;;;;;;4976656;28;20674;-73
2021/12/14 06:38:27;;;;;;;40.27;21.47;;;2.30;99.90;;;;;;4976615;28;20175;-72
2021/12/14 06:41:12;;;;;;;38.47;21.37;;;2.40;99.90;;;;;;4978940;28;20229;-73
2021/12/14 06:43:49;;;;;;;40.30;21.70;;;2.40;99.90;;;;;;4983193;28;20190;-73
2021/12/14 06:46:22;;;;;;;36.77;21.10;;;2.40;99.90;;;;;;4994331;28;20176;-73
2021/12/14 06:48:55;;;;;;;37.93;21.67;;;2.50;99.90;;;;;;4978076;28;20214;-73
2021/12/14 06:51:25;;;;;;;35.63;20.63;;;2.40;99.90;;;;;;4993687;28;20187;-73
2021/12/14 06:53:59;;;;;;;36.23;20.97;;;2.40;99.90;;;;;;4993879;28;20183;-74
2021/12/14 06:56:28;;;;;;;39.63;20.63;;;2.50;99.90;;;;;;4993899;28;20168;-74
2021/12/14 06:59:07;;;;;;;47.70;22.33;;;2.50;99.90;;;;;;4994015;28;20180;-73
2021/12/14 07:01:41;;;;;;;53.33;21.53;;;2.40;99.90;;;;;;4990935;28;20202;-73
2021/12/14 07:04:11;;;;;;;44.23;21.47;;;2.40;99.90;;;;;;4985117;28;20716;-73
2021/12/14 07:06:40;;;;;;;40.60;21.63;;;2.30;99.90;;;;;;4992665;28;20180;-73
2021/12/14 07:09:16;;;;;;;44.00;21.40;;;2.20;99.90;;;;;;4992756;28;20242;-74
2021/12/14 07:11:54;;;;;;;41.87;20.73;;;2.20;99.90;;;;;;4993026;28;20234;-73
2021/12/14 07:14:32;;;;;;;40.53;21.80;;;2.20;99.90;;;;;;4959600;28;20188;-74
2021/12/14 07:17:12;;;;;;;45.13;21.07;;;2.30;99.90;;;;;;4992327;28;20681;-74
2021/12/14 07:19:45;;;;;;;42.30;21.07;;;2.40;99.90;;;;;;4993904;28;20198;-72
2021/12/14 07:22:24;;;;;;;38.53;20.13;;;2.40;99.90;;;;;;4993540;28;20233;-73
2021/12/14 07:25:03;;;;;;;39.10;20.57;;;2.40;99.90;;;;;;4992301;28;20179;-72
2021/12/14 07:27:37;;;;;;;41.00;19.83;;;2.40;99.90;;;;;;4981737;28;20203;-72
2021/12/14 07:30:14;;;;;;;41.17;20.70;;;2.40;99.90;;;;;;4975997;28;20257;-73
2021/12/14 07:32:46;;;;;;;48.30;20.47;;;2.40;99.90;;;;;;4993694;28;20214;-73
2021/12/14 07:35:26;;;;;;;43.83;21.73;;;2.30;99.90;;;;;;4978894;28;20179;-73
2021/12/14 07:37:58;;;;;;;48.40;21.67;;;2.30;99.90;;;;;;4997420;28;20218;-73
2021/12/14 07:40:31;;;;;;;40.83;20.73;;;2.30;99.90;;;;;;4995685;28;20198;-73
2021/12/14 07:43:24;;;;;;;38.20;20.23;;;2.30;99.90;;;;;;4980032;28;20222;-74
2021/12/14 07:45:51;;;;;;;38.53;20.50;;;2.30;99.90;;;;;;4997501;28;20207;-72
2021/12/14 07:48:19;;;;;;;40.90;21.30;;;2.40;99.90;;;;;;4979406;28;20553;-73
2021/12/14 07:50:53;;;;;;;42.27;21.60;;;2.40;99.90;;;;;;4997106;28;20222;-73
2021/12/14 07:53:47;;;;;;;38.97;20.23;;;2.30;99.90;;;;;;4997063;28;20172;-73
2021/12/14 07:56:52;;;;;;;43.40;20.93;;;2.30;99.90;;;;;;4997338;28;20260;-74
2021/12/14 07:59:22;;;;;;;42.17;20.77;;;2.40;99.90;;;;;;4986246;28;20774;-73
2021/12/14 08:02:05;;;;;;;34.13;19.47;;;2.40;99.90;;;;;;4983941;28;20199;-72
2021/12/14 08:04:34;;;;;;;39.57;20.27;;;2.40;99.90;;;;;;4992661;28;20226;-73
2021/12/14 08:07:00;;;;;;;42.70;21.40;;;2.50;99.90;;;;;;4996824;28;20535;-73
2021/12/14 08:09:52;;;;;;;37.37;20.30;;;2.50;99.90;;;;;;4996878;28;20198;-74
2021/12/14 08:12:29;;;;;;;42.53;21.10;;;2.50;99.90;;;;;;4977831;28;20195;-72
2021/12/14 08:15:14;;;;;;;37.80;20.13;;;2.50;99.90;;;;;;4979510;28;20188;-74
2021/12/14 08:17:40;;;;;;;45.20;20.27;;;2.50;99.90;;;;;;4987900;28;20190;-72
2021/12/14 08:20:09;;;;;;;36.83;19.50;;;2.50;99.90;;;;;;4991685;28;20254;-75
2021/12/14 08:22:38;;;;;;;43.43;20.70;;;2.50;99.90;;;;;;4996317;28;20204;-74
2021/12/14 08:25:08;;;;;;;51.37;22.77;;;2.50;99.90;;;;;;4986901;28;20177;-74
2021/12/14 08:27:34;;;;;;;41.43;20.83;;;2.50;99.90;;;;;;4978059;28;20211;-74
2021/12/14 08:30:07;;;;;;;41.70;21.13;;;2.50;99.90;;;;;;4976620;28;20264;-73
2021/12/14 08:32:36;;;;;;;47.53;21.03;;;2.50;99.90;;;;;;4983543;28;20245;-74
2021/12/14 08:35:08;;;;;;;42.77;22.30;;;2.60;99.90;;;;;;4976699;28;20529;-73
2021/12/14 08:37:51;;;;;;;41.37;21.50;;;2.50;99.90;;;;;;4959614;28;20208;-73
2021/12/14 08:40:29;;;;;;;46.77;21.63;;;2.50;99.90;;;;;;4977663;28;20667;-74
2021/12/14 08:43:19;;;;;;;43.33;21.10;;;2.60;99.90;;;;;;4976062;28;20216;-73
2021/12/14 08:45:49;;;;;;;39.30;20.63;;;2.50;99.90;;;;;;4974056;28;20192;-72
2021/12/14 08:48:35;;;;;;;41.33;20.53;;;2.60;99.90;;;;;;4961774;28;20205;-72
2021/12/14 08:51:13;;;;;;;43.40;21.23;;;2.60;99.90;;;;;;4977157;28;20192;-72
2021/12/14 08:53:46;;;;;;;48.37;23.20;;;2.60;99.90;;;;;;4974513;28;20184;-75
2021/12/14 08:56:13;;;;;;;42.17;20.93;;;2.60;99.90;;;;;;4958889;28;20623;-74
2021/12/14 08:58:40;;;;;;;46.20;22.17;;;2.60;99.90;;;;;;4976301;28;20223;-74
2021/12/14 09:01:13;;;;;;;43.27;22.00;;;2.60;99.90;;;;;;4994162;28;20206;-73
2021/12/14 09:03:45;;;;;;;36.50;20.03;;;2.60;99.90;;;;;;4978990;28;20173;-73
2021/12/14 09:06:18;;;;;;;50.47;23.07;;;2.70;99.90;;;;;;4989932;28;20247;-73
2021/12/14 09:08:47;;;;;;;41.20;20.73;;;2.60;99.90;;;;;;4989943;28;20205;-73
2021/12/14 09:11:16;;;;;;;40.07;21.13;;;2.60;99.90;;;;;;4989197;28;20580;-73
2021/12/14 09:13:43;;;;;;;45.60;21.80;;;2.70;99.90;;;;;;4995524;28;20180;-72
2021/12/14 09:16:22;;;;;;;47.07;23.43;;;2.70;99.90;;;;;;4978403;28;20226;-73
2021/12/14 09:18:53;;;;;;;46.13;22.40;;;2.70;99.90;;;;;;4995195;28;20699;-74
2021/12/14 09:21:30;;;;;;;53.10;22.13;;;2.70;99.90;;;;;;4976112;28;20204;-73
2021/12/14 09:24:00;;;;;;;43.40;21.53;;;2.60;99.90;;;;;;4977847;28;20187;-74
2021/12/14 09:26:31;;;;;;;47.80;22.93;;;2.60;99.90;;;;;;4975694;28;20227;-74
2021/12/14 09:28:58;;;;;;;47.40;21.43;;;2.70;99.90;;;;;;4976537;28;20283;-73
2021/12/14 09:31:31;;;;;;;37.70;20.13;;;2.70;99.90;;;;;;4975852;28;20195;-74
2021/12/14 09:33:59;;;;;;;41.87;22.13;;;2.70;99.90;;;;;;4994459;28;20207;-73
2021/12/14 09:36:28;;;;;;;40.77;20.13;;;2.70;99.90;;;;;;4995165;28;20180;-73
2021/12/14 09:38:59;;;;;;;38.23;20.77;;;2.70;99.90;;;;;;4994322;28;20674;-74
2021/12/14 09:41:31;;;;;;;43.60;21.83;;;2.70;99.90;;;;;;4994481;28;20211;-73
2021/12/14 09:43:57;;;;;;;44.53;21.20;;;2.80;99.90;;;;;;4977586;28;20227;-74
2021/12/14 09:46:24;;;;;;;43.23;22.53;;;2.70;99.90;;;;;;4995138;28;20179;-74
2021/12/14 09:48:55;;;;;;;42.47;21.13;;;2.80;99.90;;;;;;4994929;28;20550;-74
2021/12/14 09:51:25;;;;;;;47.97;22.57;;;2.80;99.90;;;;;;4976861;28;20206;-73
2021/12/14 09:53:55;;;;;;;45.47;22.57;;;2.70;99.90;;;;;;4991776;28;20181;-72
2021/12/14 09:56:23;;;;;;;43.00;21.93;;;2.80;99.90;;;;;;4994915;28;20668;-73
2021/12/14 09:58:58;;;;;;;41.97;22.37;;;2.90;99.90;;;;;;4975318;28;20188;-73
2021/12/14 10:01:31;;;;;;;40.10;21.33;;;2.90;99.90;;;;;;4987557;28;20681;-74
2021/12/14 10:04:00;;;;;;;41.43;22.27;;;3.10;99.90;;;;;;4994520;28;20187;-73
2021/12/14 10:06:30;;;;;;;41.90;22.93;;;2.90;99.90;;;;;;4976574;28;20733;-72
2021/12/14 10:09:04;;;;;;;50.37;23.63;;;2.80;99.90;;;;;;4994159;28;20204;-73
2021/12/14 10:14:27;;;;;;;45.67;22.87;;;2.80;99.90;;;;;;4980558;28;20223;-73
2021/12/14 10:16:53;;;;;;;48.83;24.93;;;2.80;99.90;;;;;;4986762;28;20183;-73
2021/12/14 10:19:27;;;;;;;50.03;25.40;;;2.90;99.90;;;;;;4961411;28;21089;-73
2021/12/14 10:22:01;;;;;;;54.33;25.37;;;2.80;99.90;;;;;;4986164;28;20210;-74
2021/12/14 10:24:29;;;;;;;48.33;23.53;;;2.80;99.90;;;;;;4975125;28;20213;-75
2021/12/14 10:27:00;;;;;;;52.87;26.07;;;2.80;99.90;;;;;;4973776;28;20184;-73
2021/12/14 10:29:29;;;;;;;46.40;22.67;;;2.80;99.90;;;;;;4983040;28;20208;-73
2021/12/14 10:32:00;;;;;;;50.40;24.70;;;2.80;99.90;;;;;;4965513;28;20201;-73
2021/12/14 10:34:30;;;;;;;49.57;25.20;;;2.90;99.90;;;;;;4981504;28;20172;-74
2021/12/14 10:37:12;;;;;;;46.43;23.50;;;2.90;99.90;;;;;;4978554;28;20196;-74
2021/12/14 10:45:09;;;;;;;42.23;22.80;;;2.80;99.90;;;;;;5039714;23;20283;-77
2021/12/14 10:47:35;;;;;;;44.13;23.73;;;2.90;99.90;;;;;;5006955;28;20269;-77
2021/12/14 10:50:07;;;;;;;49.97;25.10;;;2.80;99.90;;;;;;5011282;28;20199;-77
2021/12/14 10:52:33;;;;;;;42.80;23.97;;;2.90;99.90;;;;;;5002888;28;20175;-77
2021/12/14 10:55:08;;;;;;;42.60;23.07;;;3.00;99.90;;;;;;4988159;28;20580;-77
2021/12/14 10:57:35;;;;;;;47.33;24.13;;;2.80;99.90;;;;;;5003325;28;20171;-77
2021/12/14 11:00:08;;;;;;;43.03;24.27;;;2.90;99.90;;;;;;4979965;28;20180;-77
2021/12/14 11:02:40;;;;;;;39.13;22.83;;;2.90;99.90;;;;;;4994082;28;20617;-77
2021/12/14 11:05:14;;;;;;;43.30;24.53;;;3.00;99.90;;;;;;4981788;28;20199;-77
2021/12/14 11:07:42;;;;;;;44.97;23.53;;;3.00;99.90;;;;;;5005522;28;20274;-76
2021/12/14 11:10:31;;;;;;;44.90;24.90;;;2.90;99.90;;;;;;5002162;28;20611;-77
2021/12/14 11:13:01;;;;;;;42.00;25.00;;;3.00;99.90;;;;;;4995896;28;20183;-76
2021/12/14 11:15:35;;;;;;;40.70;23.20;;;3.00;99.90;;;;;;4981275;28;20212;-76
2021/12/14 11:18:08;;;;;;;41.87;24.73;;;3.00;99.90;;;;;;5000352;28;20172;-78
2021/12/14 11:20:42;;;;;;;40.63;24.70;;;3.10;99.90;;;;;;4993002;28;20671;-77
2021/12/14 11:23:17;;;;;;;40.10;22.97;;;3.10;99.90;;;;;;5006013;28;20249;-77
2021/12/14 11:25:48;;;;;;;40.47;23.03;;;3.20;99.90;;;;;;5001659;28;20618;-76
2021/12/14 11:28:31;;;;;;;37.60;22.07;;;3.20;99.90;;;;;;4985951;28;20587;-77
2021/12/14 11:31:20;;;;;;;37.33;20.50;;;3.30;99.90;;;;;;4995013;28;20254;-77
2021/12/14 11:33:51;;;;;;;33.37;19.47;;;3.30;99.90;;;;;;4989967;28;20548;-77
2021/12/14 11:36:26;;;;;;;28.83;18.70;;;3.30;99.90;;;;;;5000024;28;20570;-75
2021/12/14 11:39:03;;;;;;;31.70;19.73;;;3.40;99.90;;;;;;4999317;28;20194;-77
2021/12/14 11:41:35;;;;;;;27.07;18.43;;;3.40;99.90;;;;;;4997854;28;20186;-77
2021/12/14 11:44:10;;;;;;;32.60;19.73;;;3.50;99.90;;;;;;4978001;28;20173;-76
2021/12/14 11:47:06;;;;;;;33.00;20.30;;;3.60;99.90;;;;;;4980365;28;20174;-76
2021/12/14 11:50:16;;;;;;;31.97;19.10;;;3.70;99.90;;;;;;4998130;28;20191;-77
2021/12/14 11:53:00;;;;;;;32.33;19.07;;;3.80;99.90;;;;;;4905899;29;20174;-77
2021/12/14 11:55:38;;;;;;;26.33;17.90;;;3.90;99.90;;;;;;4922553;29;20295;-76
2021/12/14 11:58:36;;;;;;;26.20;17.53;;;4.00;99.90;;;;;;4953233;28;20206;-75
2021/12/14 12:01:23;;;;;;;26.30;17.43;;;4.00;99.90;;;;;;4990136;28;20659;-75
2021/12/14 12:03:53;;;;;;;31.53;19.17;;;4.00;99.90;;;;;;4991870;28;20179;-76
2021/12/14 12:09:32;;;;;;;27.23;17.93;;;4.00;99.90;;;;;;4987751;28;20205;-76
2021/12/14 12:12:08;;;;;;;27.50;18.80;;;4.00;99.90;;;;;;4980824;28;20200;-77
2021/12/14 12:14:49;;;;;;;27.53;18.23;;;3.90;99.90;;;;;;4977064;28;20206;-77
2021/12/14 12:17:40;;;;;;;29.53;18.53;;;3.90;99.90;;;;;;4993050;28;20177;-75
2021/12/14 12:20:25;;;;;;;27.93;19.10;;;3.90;99.90;;;;;;4990637;28;20172;-75
2021/12/14 12:23:09;;;;;;;29.40;19.60;;;4.00;99.90;;;;;;4978809;28;20575;-77
2021/12/14 12:25:39;;;;;;;27.17;17.97;;;4.00;99.90;;;;;;4967099;28;20590;-76
2021/12/14 12:28:08;;;;;;;29.20;18.87;;;4.10;99.90;;;;;;4998614;28;20176;-78
2021/12/14 12:31:04;;;;;;;34.57;19.40;;;4.10;99.90;;;;;;4985607;28;20168;-76
2021/12/14 12:33:38;;;;;;;28.50;18.60;;;4.00;99.90;;;;;;4998213;28;20168;-77
2021/12/14 12:36:12;;;;;;;28.13;19.27;;;4.10;99.90;;;;;;4996990;28;20555;-76
2021/12/14 12:38:40;;;;;;;27.77;18.70;;;4.20;99.90;;;;;;4983326;28;20555;-75
2021/12/14 12:41:09;;;;;;;32.17;19.10;;;4.20;99.90;;;;;;4988340;28;20700;-76
2021/12/14 12:43:37;;;;;;;29.70;19.33;;;4.30;99.90;;;;;;4992001;28;20262;-75
2021/12/14 12:46:13;;;;;;;35.47;20.57;;;4.30;99.90;;;;;;4995761;28;20678;-77
2021/12/14 12:49:02;;;;;;;32.27;19.50;;;4.20;99.90;;;;;;4995501;28;20180;-75
2021/12/14 12:51:49;;;;;;;29.07;19.50;;;4.20;99.90;;;;;;4995622;28;20168;-75
2021/12/14 12:54:24;;;;;;;30.47;19.53;;;4.20;99.90;;;;;;4977943;28;20192;-75
2021/12/14 12:57:08;;;;;;;27.57;18.53;;;4.20;99.90;;;;;;4978041;28;20174;-74
2021/12/14 13:00:13;;;;;;;32.10;18.67;;;4.30;99.90;;;;;;4996877;28;20266;-76
2021/12/14 13:02:45;;;;;;;29.13;18.43;;;4.30;99.90;;;;;;4996015;28;20188;-76
2021/12/14 13:05:45;;;;;;;30.07;19.73;;;4.40;99.90;;;;;;4996392;28;20200;-76
2021/12/14 13:08:18;;;;;;;26.67;18.03;;;4.40;99.90;;;;;;4992175;28;21790;-76
2021/12/14 13:10:45;;;;;;;27.50;17.90;;;4.30;99.90;;;;;;4995352;28;20254;-75
2021/12/14 13:13:25;;;;;;;29.20;18.87;;;4.30;99.90;;;;;;4994944;28;20180;-76
2021/12/14 13:16:33;;;;;;;26.70;18.23;;;4.30;99.90;;;;;;4995191;28;20200;-75
2021/12/14 13:19:13;;;;;;;25.23;17.37;;;4.30;99.90;;;;;;4933439;29;20197;-75
2021/12/14 13:21:42;;;;;;;25.30;18.30;;;4.30;99.90;;;;;;4992229;28;20200;-75
2021/12/14 13:24:16;;;;;;;29.97;18.57;;;4.30;99.90;;;;;;4995464;28;20212;-75
2021/12/14 13:26:51;;;;;;;30.63;19.63;;;4.30;99.90;;;;;;4994804;28;20238;-77
2021/12/14 13:29:29;;;;;;;27.03;17.37;;;4.30;99.90;;;;;;4979733;28;20206;-75
2021/12/14 13:32:00;;;;;;;26.40;17.80;;;4.40;99.90;;;;;;4979268;28;20223;-76
2021/12/14 13:34:36;;;;;;;30.33;18.20;;;4.30;99.90;;;;;;4993711;28;20699;-75
2021/12/14 13:37:03;;;;;;;24.70;17.93;;;4.30;99.90;;;;;;4993550;28;20643;-76
2021/12/14 13:39:32;;;;;;;27.60;18.33;;;4.30;99.90;;;;;;4994952;28;20189;-75
2021/12/14 13:42:05;;;;;;;26.97;18.13;;;4.30;99.90;;;;;;4993666;28;20172;-77
2021/12/14 13:44:36;;;;;;;27.13;18.03;;;4.40;99.90;;;;;;4990545;28;20602;-77
2021/12/14 13:47:06;;;;;;;24.60;16.37;;;4.30;99.90;;;;;;4967728;28;20678;-77
2021/12/14 13:49:33;;;;;;;26.93;18.33;;;4.20;99.90;;;;;;4977853;28;20267;-77
2021/12/14 13:51:59;;;;;;;27.47;18.60;;;4.20;99.90;;;;;;4996472;28;20187;-76
2021/12/14 13:54:25;;;;;;;27.97;17.97;;;4.20;99.90;;;;;;4979244;28;20206;-77
2021/12/14 13:56:52;;;;;;;31.93;19.87;;;4.20;99.90;;;;;;4979583;28;20262;-76